Time;durP1;ratioP1;P1;durP2;ratioP2;P2;SDS_P1;SDS_P2;PMS_P1;PMS_P2;Temp;Humidity;BMP_temperature;BMP_pressure;BME280_temperature;BME280_humidity;BME280_pressure;Samples;Min_cycle;Max_cycle;Signal;HPM_P1;HPM_P2
2021/07/18 00:02:24;;;;;;;6.63;3.47;;;22.20;89.30;;;;;;5029766;28;20033;-71
2021/07/18 00:05:10;;;;;;;10.30;4.45;;;22.10;89.40;;;;;;5029713;28;20026;-71
2021/07/18 00:08:01;;;;;;;8.25;4.03;;;22.00;89.80;;;;;;5026862;28;20040;-71
2021/07/18 00:10:48;;;;;;;9.43;4.47;;;22.00;89.70;;;;;;5031278;28;20044;-71
2021/07/18 00:13:33;;;;;;;10.75;4.07;;;22.00;89.90;;;;;;5032359;28;20108;-70
2021/07/18 00:16:19;;;;;;;6.70;4.35;;;22.00;90.00;;;;;;5031091;28;20493;-71
2021/07/18 00:19:06;;;;;;;7.88;4.00;;;22.00;90.00;;;;;;5030187;28;20033;-71
2021/07/18 00:21:52;;;;;;;5.72;3.50;;;22.00;90.00;;;;;;5001825;28;20115;-71
2021/07/18 00:24:36;;;;;;;6.55;3.72;;;21.90;90.10;;;;;;5016699;28;20036;-70
2021/07/18 00:27:20;;;;;;;4.68;3.05;;;21.90;90.20;;;;;;5032337;28;20041;-71
2021/07/18 00:30:06;;;;;;;6.90;3.15;;;21.90;90.30;;;;;;5028650;28;20052;-70
2021/07/18 00:32:51;;;;;;;5.95;3.30;;;21.90;90.40;;;;;;5031382;28;20092;-71
2021/07/18 00:35:35;;;;;;;6.80;3.00;;;21.90;90.20;;;;;;5030964;28;20505;-70
2021/07/18 00:38:19;;;;;;;5.23;2.87;;;21.90;90.30;;;;;;5032305;28;20037;-69
2021/07/18 00:41:03;;;;;;;5.30;3.03;;;21.90;90.40;;;;;;5030619;28;20302;-69
2021/07/18 00:43:46;;;;;;;6.50;3.00;;;21.80;90.50;;;;;;5032691;28;20052;-70
2021/07/18 00:46:30;;;;;;;7.10;3.50;;;21.80;90.40;;;;;;5031935;28;20327;-69
2021/07/18 00:49:14;;;;;;;6.53;3.85;;;21.80;90.50;;;;;;5029988;28;20464;-69
2021/07/18 00:51:59;;;;;;;5.37;3.50;;;21.80;90.50;;;;;;5032140;28;20044;-69
2021/07/18 00:54:43;;;;;;;6.90;2.90;;;21.70;90.60;;;;;;5030032;28;20804;-69
2021/07/18 00:57:27;;;;;;;7.32;3.30;;;21.60;90.60;;;;;;5032192;28;20068;-69
2021/07/18 01:00:12;;;;;;;4.57;2.88;;;21.70;90.70;;;;;;5015927;28;20039;-68
2021/07/18 01:02:56;;;;;;;7.30;3.53;;;21.70;90.80;;;;;;5029776;28;20044;-69
2021/07/18 01:05:41;;;;;;;8.13;3.30;;;21.70;90.80;;;;;;5030299;28;20040;-69
2021/07/18 01:08:25;;;;;;;5.60;3.30;;;21.70;90.80;;;;;;5031904;28;20524;-68
2021/07/18 01:11:09;;;;;;;12.15;3.65;;;21.60;90.80;;;;;;5030046;28;20044;-68
2021/07/18 01:13:53;;;;;;;6.90;3.20;;;21.60;90.90;;;;;;5025528;28;20552;-68
2021/07/18 01:16:37;;;;;;;5.55;2.85;;;21.60;90.80;;;;;;5032069;28;20044;-69
2021/07/18 01:19:22;;;;;;;6.20;3.20;;;21.60;90.80;;;;;;5014955;28;20554;-69
2021/07/18 01:22:06;;;;;;;6.22;3.17;;;21.50;90.90;;;;;;5016482;28;20072;-69
2021/07/18 01:24:51;;;;;;;6.90;3.08;;;21.50;91.00;;;;;;5029915;28;20147;-70
2021/07/18 01:27:36;;;;;;;5.88;2.70;;;21.50;91.10;;;;;;5031594;28;20359;-70
2021/07/18 01:30:20;;;;;;;4.85;2.78;;;21.40;91.40;;;;;;5025952;28;20115;-70
2021/07/18 01:33:04;;;;;;;5.53;2.70;;;21.30;91.40;;;;;;5031486;28;20068;-69
2021/07/18 01:35:48;;;;;;;8.13;2.85;;;21.20;91.40;;;;;;5015668;28;20140;-69
2021/07/18 01:38:32;;;;;;;7.95;3.10;;;21.20;91.50;;;;;;5031289;28;20124;-69
2021/07/18 01:41:16;;;;;;;5.90;2.75;;;21.20;91.40;;;;;;5028868;28;20079;-69
2021/07/18 01:44:02;;;;;;;8.50;2.83;;;21.30;91.50;;;;;;5030532;28;20148;-69
2021/07/18 01:46:46;;;;;;;5.40;3.00;;;21.20;91.50;;;;;;5003975;28;20157;-69
2021/07/18 01:49:30;;;;;;;5.35;3.67;;;21.30;91.60;;;;;;5020239;28;20416;-68
2021/07/18 01:52:17;;;;;;;6.57;2.95;;;21.20;91.60;;;;;;5014142;28;20052;-69
2021/07/18 01:54:43;;;;;;;6.93;2.97;;;21.20;91.70;;;;;;5028522;28;20031;-68
2021/07/18 01:57:27;;;;;;;6.13;2.78;;;21.30;91.60;;;;;;5031296;28;20036;-68
2021/07/18 02:00:13;;;;;;;3.78;2.75;;;21.30;91.60;;;;;;5030762;28;20094;-69
2021/07/18 02:02:57;;;;;;;5.75;3.30;;;21.20;91.70;;;;;;5029537;28;20414;-69
2021/07/18 02:05:41;;;;;;;7.40;2.93;;;21.20;91.70;;;;;;5030880;28;20095;-69
2021/07/18 02:08:25;;;;;;;8.25;2.95;;;21.20;91.90;;;;;;5029328;28;20032;-69
2021/07/18 02:11:09;;;;;;;4.57;2.60;;;21.10;91.90;;;;;;5030884;28;20188;-69
2021/07/18 02:13:55;;;;;;;4.85;2.80;;;21.10;92.00;;;;;;5014774;28;20036;-69
2021/07/18 02:16:39;;;;;;;8.70;3.42;;;21.00;92.00;;;;;;5030875;28;20095;-68
2021/07/18 02:19:28;;;;;;;5.93;3.07;;;21.00;92.00;;;;;;5028974;28;20398;-68
2021/07/18 02:22:12;;;;;;;3.60;2.40;;;21.00;92.10;;;;;;5030491;28;20120;-68
2021/07/18 02:24:56;;;;;;;7.30;2.70;;;21.00;92.10;;;;;;5029506;28;20029;-69
2021/07/18 02:27:40;;;;;;;7.53;2.83;;;21.00;92.20;;;;;;5028084;28;20295;-68
2021/07/18 02:30:26;;;;;;;4.68;2.90;;;21.00;92.30;;;;;;5010872;28;20056;-69
2021/07/18 02:33:11;;;;;;;4.57;2.80;;;21.00;92.20;;;;;;5013323;28;20300;-68
2021/07/18 02:35:55;;;;;;;4.93;2.55;;;21.00;92.20;;;;;;5030933;28;20041;-68
2021/07/18 02:38:39;;;;;;;4.68;2.50;;;21.00;92.10;;;;;;5029234;28;20084;-68
2021/07/18 02:41:23;;;;;;;5.65;3.03;;;21.00;92.10;;;;;;5029788;28;20040;-68
2021/07/18 02:44:07;;;;;;;4.93;2.63;;;20.90;92.00;;;;;;5029131;28;20049;-68
2021/07/18 02:46:51;;;;;;;5.70;2.83;;;20.90;92.10;;;;;;5030994;28;20275;-68
2021/07/18 02:49:35;;;;;;;5.13;3.00;;;20.90;92.10;;;;;;5028608;28;20076;-68
2021/07/18 02:52:19;;;;;;;4.75;2.70;;;20.90;92.10;;;;;;5032119;28;20098;-68
2021/07/18 02:55:05;;;;;;;5.90;3.23;;;20.90;92.20;;;;;;5033959;28;20040;-68
2021/07/18 02:57:49;;;;;;;4.57;2.83;;;20.80;92.20;;;;;;5032429;28;20538;-69
2021/07/18 03:00:33;;;;;;;4.80;2.65;;;20.80;92.30;;;;;;5032929;28;20031;-68
2021/07/18 03:03:19;;;;;;;5.38;3.05;;;20.70;92.30;;;;;;5031425;28;20392;-68
2021/07/18 03:06:03;;;;;;;4.60;2.63;;;20.70;92.40;;;;;;5034094;28;20064;-68
2021/07/18 03:08:47;;;;;;;4.45;2.65;;;20.70;92.40;;;;;;5032602;28;20220;-68
2021/07/18 03:11:31;;;;;;;9.57;4.20;;;20.70;92.50;;;;;;5031493;28;20040;-68
2021/07/18 03:14:15;;;;;;;7.32;3.15;;;20.70;92.40;;;;;;5032126;28;20087;-68
2021/07/18 03:16:59;;;;;;;8.43;2.80;;;20.60;92.60;;;;;;5033779;28;20040;-69
2021/07/18 03:19:43;;;;;;;6.83;3.10;;;20.60;92.70;;;;;;5031914;28;20083;-69
2021/07/18 03:22:28;;;;;;;4.95;2.90;;;20.50;92.90;;;;;;5033635;28;20287;-69
2021/07/18 03:25:13;;;;;;;6.47;2.92;;;20.50;93.00;;;;;;5033706;28;20180;-69
2021/07/18 03:27:57;;;;;;;4.60;2.83;;;20.50;93.10;;;;;;5031544;28;20111;-69
2021/07/18 03:30:41;;;;;;;6.80;2.87;;;20.40;93.20;;;;;;5033279;28;20063;-68
2021/07/18 03:33:25;;;;;;;16.05;3.53;;;20.40;93.30;;;;;;5032046;28;20032;-68
2021/07/18 03:36:09;;;;;;;4.57;3.17;;;20.40;93.30;;;;;;5033594;28;20045;-68
2021/07/18 03:38:53;;;;;;;9.20;3.55;;;20.40;93.30;;;;;;5031526;28;20095;-68
2021/07/18 03:41:37;;;;;;;5.03;2.70;;;20.40;93.40;;;;;;5032382;28;20120;-68
2021/07/18 03:44:21;;;;;;;6.07;2.75;;;20.40;93.40;;;;;;5031671;28;20107;-68
2021/07/18 03:47:06;;;;;;;6.18;2.80;;;20.40;93.40;;;;;;5033520;28;20125;-67
2021/07/18 03:49:50;;;;;;;5.43;2.78;;;20.40;93.50;;;;;;5031237;28;20142;-69
2021/07/18 03:52:34;;;;;;;6.97;2.90;;;20.40;93.60;;;;;;5032574;28;20033;-68
2021/07/18 03:55:00;;;;;;;6.90;3.15;;;20.50;93.60;;;;;;5032554;28;20312;-68
2021/07/18 03:57:45;;;;;;;7.47;3.67;;;20.50;93.70;;;;;;5031285;28;20036;-68
2021/07/18 04:00:31;;;;;;;5.15;3.03;;;20.50;93.70;;;;;;5033304;28;20493;-68
2021/07/18 04:03:16;;;;;;;5.40;3.00;;;20.40;93.80;;;;;;5028488;28;20018;-68
2021/07/18 04:06:03;;;;;;;3.75;2.47;;;20.50;94.00;;;;;;5032813;28;20055;-68
2021/07/18 04:08:49;;;;;;;5.07;2.70;;;20.50;94.00;;;;;;5030956;28;20038;-67
2021/07/18 04:11:35;;;;;;;5.93;3.08;;;20.50;94.10;;;;;;5032116;28;20029;-67
2021/07/18 04:14:21;;;;;;;7.30;3.03;;;20.50;94.10;;;;;;5030921;28;20476;-69
2021/07/18 04:17:07;;;;;;;10.18;3.85;;;20.50;94.10;;;;;;5030214;28;20181;-69
2021/07/18 04:19:52;;;;;;;4.63;2.50;;;20.50;94.20;;;;;;5029525;28;20464;-69
2021/07/18 04:22:38;;;;;;;6.13;3.15;;;20.60;94.10;;;;;;5030756;28;20116;-70
2021/07/18 04:25:24;;;;;;;4.03;2.75;;;20.60;94.30;;;;;;5011840;28;20042;-70
2021/07/18 04:28:10;;;;;;;5.40;2.70;;;20.60;94.20;;;;;;5020759;28;20029;-70
2021/07/18 04:30:56;;;;;;;5.88;2.60;;;20.60;94.20;;;;;;5031880;28;20555;-70
2021/07/18 04:33:43;;;;;;;6.30;2.70;;;20.70;94.20;;;;;;5031060;28;20099;-70
2021/07/18 04:36:29;;;;;;;4.13;2.40;;;20.60;94.20;;;;;;5032357;28;20489;-70
2021/07/18 04:39:15;;;;;;;4.60;2.28;;;20.60;94.30;;;;;;5028741;28;20037;-69
2021/07/18 04:42:01;;;;;;;6.75;2.88;;;20.70;94.30;;;;;;5030974;28;20045;-69
2021/07/18 04:44:47;;;;;;;4.53;2.10;;;20.70;94.30;;;;;;5029202;28;20025;-70
2021/07/18 04:47:41;;;;;;;4.03;2.78;;;20.70;94.20;;;;;;5031544;28;20037;-70
2021/07/18 04:50:27;;;;;;;5.60;2.47;;;20.80;94.30;;;;;;5011118;28;20129;-70
2021/07/18 04:53:13;;;;;;;4.35;2.60;;;20.80;94.20;;;;;;5015880;28;20025;-70
2021/07/18 04:55:59;;;;;;;4.78;2.50;;;20.90;94.20;;;;;;5032128;28;20481;-70
2021/07/18 04:58:45;;;;;;;4.20;2.58;;;20.90;94.30;;;;;;5030466;28;20053;-70
2021/07/18 05:01:31;;;;;;;3.50;2.38;;;20.90;94.30;;;;;;5030815;28;20090;-70
2021/07/18 05:04:16;;;;;;;6.75;2.80;;;21.00;94.10;;;;;;5024800;28;20018;-70
2021/07/18 05:07:02;;;;;;;4.25;2.38;;;20.90;94.10;;;;;;5028246;28;20029;-70
2021/07/18 05:09:48;;;;;;;3.85;2.20;;;20.90;94.10;;;;;;5028811;28;20050;-70
2021/07/18 05:12:34;;;;;;;5.47;2.42;;;21.00;94.10;;;;;;5030150;28;20031;-70
2021/07/18 05:15:21;;;;;;;6.90;2.50;;;21.00;94.10;;;;;;5012821;28;20036;-70
2021/07/18 05:18:12;;;;;;;3.38;2.10;;;21.00;94.10;;;;;;5014802;28;20026;-69
2021/07/18 05:20:58;;;;;;;5.22;3.00;;;21.10;94.10;;;;;;5030430;28;20030;-70
2021/07/18 05:23:44;;;;;;;5.40;2.78;;;21.10;94.00;;;;;;5029345;28;20053;-70
2021/07/18 05:26:30;;;;;;;5.40;2.53;;;21.00;94.20;;;;;;5030953;28;20060;-70
2021/07/18 05:29:15;;;;;;;4.80;2.35;;;21.00;94.30;;;;;;5028634;28;20446;-71
2021/07/18 05:32:02;;;;;;;5.07;2.72;;;21.00;94.20;;;;;;5030315;28;20135;-71
2021/07/18 05:34:48;;;;;;;5.20;2.35;;;21.10;94.20;;;;;;5028259;28;20038;-71
2021/07/18 05:37:34;;;;;;;5.53;2.53;;;21.20;94.20;;;;;;5030788;28;20040;-71
2021/07/18 05:40:20;;;;;;;5.07;2.70;;;21.20;94.30;;;;;;5011283;28;20049;-71
2021/07/18 05:43:06;;;;;;;4.45;2.55;;;21.30;94.30;;;;;;5014933;28;20025;-71
2021/07/18 05:45:52;;;;;;;4.35;2.55;;;21.30;94.10;;;;;;5032559;28;20125;-71
2021/07/18 05:48:38;;;;;;;4.80;2.53;;;21.40;94.20;;;;;;5027476;28;20045;-71
2021/07/18 05:51:23;;;;;;;4.35;2.20;;;21.50;94.10;;;;;;5032505;28;20121;-71
2021/07/18 05:54:09;;;;;;;6.15;2.47;;;21.50;94.20;;;;;;5019927;28;20394;-70
2021/07/18 05:56:53;;;;;;;6.05;2.30;;;21.60;94.00;;;;;;5011820;28;20040;-70
2021/07/18 05:59:37;;;;;;;6.47;2.70;;;21.60;94.00;;;;;;5026845;28;20130;-69
2021/07/18 06:02:21;;;;;;;4.93;2.63;;;21.60;94.00;;;;;;5029725;28;20587;-73
2021/07/18 06:05:06;;;;;;;6.78;2.63;;;21.60;93.90;;;;;;5030379;28;20040;-71
2021/07/18 06:07:50;;;;;;;4.15;2.45;;;21.60;94.00;;;;;;5029774;28;20044;-74
2021/07/18 06:10:35;;;;;;;5.13;3.17;;;21.60;94.00;;;;;;5029005;28;20045;-64
2021/07/18 06:13:19;;;;;;;5.53;2.38;;;21.80;94.20;;;;;;5016500;28;20558;-62
2021/07/18 06:16:04;;;;;;;4.25;2.40;;;22.00;93.80;;;;;;5023707;28;20797;-63
2021/07/18 06:18:48;;;;;;;4.95;2.75;;;22.10;93.60;;;;;;5023401;28;20563;-63
2021/07/18 06:21:32;;;;;;;4.43;2.05;;;22.20;93.20;;;;;;5019180;28;20581;-63
2021/07/18 06:24:16;;;;;;;4.47;2.30;;;22.30;93.10;;;;;;5024796;28;20048;-63
2021/07/18 06:27:02;;;;;;;3.80;2.30;;;22.50;93.00;;;;;;5029584;28;20355;-62
2021/07/18 06:29:46;;;;;;;5.80;2.58;;;22.60;92.70;;;;;;5025829;28;20192;-63
2021/07/18 06:32:30;;;;;;;4.72;2.58;;;22.70;92.60;;;;;;5027224;28;20036;-62
2021/07/18 06:35:14;;;;;;;3.97;2.50;;;22.80;92.50;;;;;;5026667;28;20049;-62
2021/07/18 06:37:58;;;;;;;5.15;2.50;;;22.90;92.40;;;;;;5030447;28;20507;-62
2021/07/18 06:40:43;;;;;;;4.97;2.40;;;22.90;92.20;;;;;;5024554;28;20553;-62
2021/07/18 06:43:27;;;;;;;6.43;1.98;;;23.00;92.20;;;;;;5030367;28;20033;-62
2021/07/18 06:46:11;;;;;;;4.80;2.33;;;23.00;92.00;;;;;;5031047;28;20558;-62
2021/07/18 06:48:55;;;;;;;4.28;2.25;;;23.00;91.90;;;;;;5025149;28;20296;-63
2021/07/18 06:51:39;;;;;;;3.75;2.15;;;23.00;91.90;;;;;;5030463;28;20510;-63
2021/07/18 06:54:23;;;;;;;5.38;2.45;;;23.20;91.80;;;;;;5029581;28;20031;-63
2021/07/18 06:57:07;;;;;;;3.95;2.30;;;23.20;91.60;;;;;;5027835;28;20110;-63
2021/07/18 06:59:51;;;;;;;5.05;2.47;;;23.20;91.50;;;;;;5029882;28;20049;-63
2021/07/18 07:02:35;;;;;;;3.35;2.15;;;23.30;91.70;;;;;;5021029;28;20037;-63
2021/07/18 07:05:19;;;;;;;3.63;1.98;;;23.20;91.20;;;;;;5030162;28;20087;-63
2021/07/18 07:08:03;;;;;;;3.42;1.98;;;23.20;91.20;;;;;;5032066;28;20043;-64
2021/07/18 07:10:48;;;;;;;3.42;2.00;;;23.30;91.10;;;;;;5027354;28;20052;-64
2021/07/18 07:13:33;;;;;;;4.07;1.83;;;23.40;91.00;;;;;;5026329;28;20068;-63
2021/07/18 07:16:18;;;;;;;5.28;2.50;;;23.50;90.80;;;;;;5031909;28;20558;-64
2021/07/18 07:19:03;;;;;;;6.45;2.35;;;23.50;90.60;;;;;;5013967;28;20044;-64
2021/07/18 07:21:47;;;;;;;4.85;2.55;;;23.60;90.60;;;;;;5029503;28;20092;-65
2021/07/18 07:24:31;;;;;;;4.03;2.10;;;23.60;90.30;;;;;;5030163;28;20039;-64
2021/07/18 07:27:15;;;;;;;5.10;1.98;;;23.70;90.40;;;;;;5030380;28;20520;-64
2021/07/18 07:30:00;;;;;;;3.55;2.10;;;23.70;90.20;;;;;;5029928;28;20635;-65
2021/07/18 07:32:46;;;;;;;3.90;1.90;;;23.80;90.10;;;;;;5029310;28;20091;-64
2021/07/18 07:35:30;;;;;;;4.38;2.30;;;23.80;90.00;;;;;;5025882;28;20393;-63
2021/07/18 07:38:14;;;;;;;3.25;1.98;;;23.80;90.20;;;;;;5027826;28;20551;-63
2021/07/18 07:40:59;;;;;;;2.83;2.05;;;23.80;90.10;;;;;;5028391;28;20045;-63
2021/07/18 07:43:44;;;;;;;4.85;2.13;;;23.90;89.90;;;;;;5030025;28;20117;-64
2021/07/18 07:46:28;;;;;;;6.20;2.45;;;24.00;89.30;;;;;;5029641;28;20040;-64
2021/07/18 07:49:13;;;;;;;4.25;2.45;;;24.00;89.10;;;;;;5032369;28;20547;-63
2021/07/18 07:51:57;;;;;;;;;;;24.10;88.80;;;;;;5030178;28;20095;-64
2021/07/18 07:54:42;;;;;;;2.83;1.95;;;24.20;88.60;;;;;;5030453;28;19920;-63
2021/07/18 07:57:26;;;;;;;4.38;2.33;;;24.20;88.40;;;;;;5029148;28;20048;-64
2021/07/18 08:00:13;;;;;;;4.50;2.40;;;24.20;88.00;;;;;;5028104;28;20040;-63
2021/07/18 08:02:59;;;;;;;3.95;1.90;;;24.30;88.00;;;;;;5030333;28;20486;-63
2021/07/18 08:05:44;;;;;;;3.78;2.00;;;24.30;87.70;;;;;;5022840;28;20024;-63
2021/07/18 08:08:31;;;;;;;3.65;1.92;;;24.30;87.40;;;;;;5027082;28;20112;-62
2021/07/18 08:11:19;;;;;;;4.93;2.30;;;24.40;86.80;;;;;;5026261;28;20065;-63
2021/07/18 08:14:05;;;;;;;4.00;1.75;;;24.40;86.30;;;;;;5008808;28;20474;-63
2021/07/18 08:16:51;;;;;;;2.70;2.15;;;24.50;86.20;;;;;;5021943;28;20052;-63
2021/07/18 08:19:39;;;;;;;3.25;2.10;;;24.50;85.50;;;;;;5027366;28;20044;-63
2021/07/18 08:22:25;;;;;;;3.53;2.08;;;24.50;85.30;;;;;;5028152;28;20025;-63
2021/07/18 08:25:14;;;;;;;4.78;2.50;;;24.50;84.80;;;;;;5010963;28;20036;-64
2021/07/18 08:28:00;;;;;;;5.03;2.97;;;24.60;85.10;;;;;;5022831;28;20607;-63
2021/07/18 08:30:46;;;;;;;4.78;2.78;;;24.70;85.20;;;;;;5029277;28;20037;-63
2021/07/18 08:33:31;;;;;;;6.70;3.25;;;24.70;84.40;;;;;;5016619;28;20052;-63
2021/07/18 08:36:17;;;;;;;4.57;2.33;;;24.70;84.70;;;;;;5023535;28;20447;-63
2021/07/18 08:39:03;;;;;;;20.10;2.30;;;24.70;84.30;;;;;;5029945;28;20033;-62
2021/07/18 08:41:50;;;;;;;4.05;2.35;;;24.80;84.40;;;;;;5029168;28;20045;-62
2021/07/18 08:44:37;;;;;;;5.88;2.15;;;24.90;84.20;;;;;;5029751;28;20025;-62
2021/07/18 08:47:23;;;;;;;3.97;2.30;;;24.90;84.10;;;;;;5026943;28;20481;-62
2021/07/18 08:50:10;;;;;;;3.80;2.33;;;24.90;83.80;;;;;;5001287;28;20050;-62
2021/07/18 08:52:56;;;;;;;3.67;1.88;;;24.90;84.00;;;;;;5005555;28;20029;-63
2021/07/18 08:55:42;;;;;;;4.47;2.22;;;25.00;83.40;;;;;;5010534;28;20033;-62
2021/07/18 08:58:28;;;;;;;4.88;2.20;;;25.10;82.50;;;;;;5008307;28;20073;-62
2021/07/18 09:01:14;;;;;;;4.50;2.00;;;25.10;82.80;;;;;;5008471;28;20034;-62
2021/07/18 09:04:00;;;;;;;3.85;2.15;;;25.10;82.40;;;;;;5008016;28;20173;-62
2021/07/18 09:06:48;;;;;;;3.95;2.00;;;25.10;82.00;;;;;;5003963;28;20474;-62
2021/07/18 09:09:34;;;;;;;3.70;2.20;;;25.10;81.50;;;;;;4990370;28;20041;-62
2021/07/18 09:12:20;;;;;;;4.25;2.13;;;25.10;81.70;;;;;;5007231;28;20018;-62
2021/07/18 09:15:08;;;;;;;3.30;1.90;;;25.30;81.90;;;;;;5007139;28;20034;-62
2021/07/18 09:18:07;;;;;;;4.38;2.83;;;25.30;82.20;;;;;;5007734;28;20170;-63
2021/07/18 09:20:56;;;;;;;2.47;1.80;;;25.30;80.70;;;;;;5001076;28;20033;-63
2021/07/18 09:23:42;;;;;;;6.13;2.67;;;25.30;81.40;;;;;;4997227;28;20022;-63
2021/07/18 09:26:28;;;;;;;4.20;2.00;;;25.40;81.00;;;;;;5005947;28;20613;-63
2021/07/18 09:29:27;;;;;;;4.10;1.95;;;25.40;81.60;;;;;;5008185;28;20559;-62
2021/07/18 09:32:16;;;;;;;3.78;1.90;;;25.50;81.20;;;;;;5009009;28;20489;-62
2021/07/18 09:35:10;;;;;;;4.47;1.95;;;25.60;81.20;;;;;;5005402;28;20422;-63
2021/07/18 09:37:56;;;;;;;3.53;1.70;;;25.60;80.10;;;;;;5000354;28;20033;-62
2021/07/18 09:40:57;;;;;;;3.08;2.20;;;25.60;79.40;;;;;;5006579;28;20037;-62
2021/07/18 09:43:43;;;;;;;4.32;2.17;;;25.70;80.00;;;;;;4998005;28;20113;-62
2021/07/18 09:46:31;;;;;;;5.72;2.40;;;25.70;79.70;;;;;;5002353;28;20576;-62
2021/07/18 09:49:34;;;;;;;5.88;2.30;;;25.80;80.20;;;;;;4998563;28;20137;-63
2021/07/18 09:52:26;;;;;;;8.95;3.15;;;25.80;79.60;;;;;;5004270;28;20128;-63
2021/07/18 09:55:19;;;;;;;3.85;2.13;;;25.90;79.80;;;;;;5000124;28;20030;-63
2021/07/18 09:58:04;;;;;;;6.20;2.35;;;25.90;79.40;;;;;;5006641;28;20141;-63
2021/07/18 10:00:48;;;;;;;4.38;2.58;;;26.00;79.10;;;;;;5010511;28;20129;-63
2021/07/18 10:03:32;;;;;;;2.95;2.03;;;26.00;77.60;;;;;;5003925;28;20081;-63
2021/07/18 10:06:18;;;;;;;;;;;26.00;78.20;;;;;;5006417;28;20502;-63
2021/07/18 10:08:46;;;;;;;2.63;1.70;;;26.10;77.90;;;;;;4999277;28;20371;-63
2021/07/18 10:11:14;;;;;;;5.40;2.47;;;26.10;78.00;;;;;;5004396;28;20038;-63
2021/07/18 10:13:41;;;;;;;2.90;2.20;;;26.20;77.40;;;;;;4997799;28;20026;-63
2021/07/18 10:16:08;;;;;;;3.35;2.05;;;26.30;77.30;;;;;;4984043;28;20029;-63
2021/07/18 10:18:54;;;;;;;4.05;1.98;;;26.30;77.40;;;;;;5006472;28;20061;-63
2021/07/18 10:21:39;;;;;;;3.55;2.40;;;26.40;77.80;;;;;;5004528;28;20088;-63
2021/07/18 10:24:24;;;;;;;;;;;26.40;77.10;;;;;;5006267;28;20097;-63
2021/07/18 10:27:09;;;;;;;5.50;2.33;;;26.40;76.50;;;;;;4996746;28;19995;-63
2021/07/18 10:29:53;;;;;;;;;;;26.40;76.70;;;;;;4999157;28;20068;-63
2021/07/18 10:32:21;;;;;;;3.22;1.83;;;26.50;75.80;;;;;;5009664;28;20369;-63
2021/07/18 10:34:50;;;;;;;3.05;1.90;;;26.50;75.70;;;;;;5012238;28;20501;-63
2021/07/18 10:37:16;;;;;;;2.90;1.70;;;26.60;75.80;;;;;;5006476;28;20101;-63
2021/07/18 10:39:43;;;;;;;3.13;1.85;;;26.70;75.90;;;;;;5007639;28;20026;-63
2021/07/18 10:42:17;;;;;;;3.22;1.75;;;26.80;76.10;;;;;;5017036;28;20040;-63
2021/07/18 10:44:45;;;;;;;;;;;26.90;75.80;;;;;;5009909;28;20030;-64
2021/07/18 10:47:12;;;;;;;2.75;1.80;;;27.00;75.30;;;;;;5014732;28;19919;-64
2021/07/18 10:49:57;;;;;;;3.60;2.20;;;27.00;74.50;;;;;;5021014;28;20042;-64
2021/07/18 10:52:28;;;;;;;4.10;2.30;;;27.10;74.40;;;;;;5017958;28;20028;-63
2021/07/18 10:54:54;;;;;;;3.58;2.08;;;27.20;74.70;;;;;;5027964;28;20025;-64
2021/07/18 10:57:25;;;;;;;3.28;2.28;;;27.20;74.20;;;;;;5025662;28;20030;-64
2021/07/18 10:59:52;;;;;;;4.18;2.00;;;27.30;73.80;;;;;;5036024;28;20095;-64
2021/07/18 11:02:20;;;;;;;4.50;2.08;;;27.30;73.40;;;;;;5028220;28;20037;-64
2021/07/18 11:04:53;;;;;;;4.03;1.50;;;27.20;73.10;;;;;;5025425;28;20034;-64
2021/07/18 11:07:21;;;;;;;3.17;1.50;;;27.20;74.10;;;;;;5028383;28;20048;-64
2021/07/18 11:10:11;;;;;;;3.22;1.70;;;27.20;73.50;;;;;;5026189;28;20756;-64
2021/07/18 11:12:42;;;;;;;3.83;1.83;;;27.20;73.60;;;;;;5015109;28;20033;-64
2021/07/18 11:15:17;;;;;;;3.05;2.45;;;27.20;73.70;;;;;;5030458;28;20025;-64
2021/07/18 11:18:04;;;;;;;4.47;1.77;;;27.20;73.90;;;;;;5030816;28;20227;-64
2021/07/18 11:20:41;;;;;;;2.53;1.80;;;27.30;74.20;;;;;;5027597;28;20100;-64
2021/07/18 11:23:08;;;;;;;3.00;1.83;;;27.30;72.90;;;;;;5028195;28;20075;-64
2021/07/18 11:25:52;;;;;;;5.15;1.73;;;27.30;72.60;;;;;;5024877;28;20056;-64
2021/07/18 11:28:31;;;;;;;2.60;1.67;;;27.30;73.60;;;;;;5028473;28;20075;-64
2021/07/18 11:31:14;;;;;;;3.55;2.13;;;27.20;72.70;;;;;;5033888;28;20033;-64
2021/07/18 11:33:52;;;;;;;5.33;2.53;;;27.20;73.70;;;;;;5031148;28;20033;-64
2021/07/18 11:36:19;;;;;;;4.18;1.80;;;27.20;73.30;;;;;;5027152;28;20052;-65
2021/07/18 11:38:45;;;;;;;4.60;2.05;;;27.30;73.20;;;;;;5030872;28;20045;-64
2021/07/18 11:41:30;;;;;;;2.10;1.40;;;27.30;72.80;;;;;;5031156;28;20030;-64
2021/07/18 11:43:58;;;;;;;3.40;1.75;;;27.30;71.30;;;;;;5029497;28;20225;-64
2021/07/18 11:46:25;;;;;;;3.25;1.92;;;27.30;71.70;;;;;;5030961;28;20351;-65
2021/07/18 11:48:55;;;;;;;4.75;2.38;;;27.40;72.00;;;;;;5027385;28;20142;-65
2021/07/18 11:51:22;;;;;;;2.47;1.38;;;27.50;72.10;;;;;;5009441;28;20029;-65
2021/07/18 11:53:57;;;;;;;2.83;1.80;;;27.60;70.80;;;;;;5028971;28;20029;-65
2021/07/18 11:56:25;;;;;;;3.15;1.60;;;27.60;70.60;;;;;;5034159;28;20037;-64
2021/07/18 11:58:52;;;;;;;3.25;1.90;;;27.60;71.00;;;;;;5030179;28;20107;-64
2021/07/18 12:01:26;;;;;;;3.67;1.80;;;27.70;70.50;;;;;;5039512;28;20025;-64
2021/07/18 12:03:53;;;;;;;2.67;1.77;;;27.80;70.10;;;;;;5030436;28;20068;-64
2021/07/18 12:06:21;;;;;;;2.83;1.70;;;27.80;69.80;;;;;;5028306;28;20025;-64
2021/07/18 12:08:47;;;;;;;3.13;1.45;;;27.80;69.70;;;;;;5030130;28;20036;-64
2021/07/18 12:11:13;;;;;;;3.15;2.10;;;27.90;69.30;;;;;;5028443;28;20034;-64
2021/07/18 12:13:43;;;;;;;4.55;2.00;;;27.90;69.10;;;;;;5025796;28;20030;-64
2021/07/18 12:16:08;;;;;;;6.85;1.63;;;27.90;69.00;;;;;;5028846;28;20037;-64
2021/07/18 12:18:54;;;;;;;2.88;1.40;;;28.00;69.10;;;;;;5022244;28;20393;-64
2021/07/18 12:21:44;;;;;;;3.17;1.90;;;27.90;67.40;;;;;;5023544;28;20040;-64
2021/07/18 12:24:15;;;;;;;4.20;1.92;;;28.00;68.40;;;;;;5025708;28;20049;-64
2021/07/18 12:26:42;;;;;;;3.20;1.80;;;28.10;68.50;;;;;;5027325;28;20042;-64
2021/07/18 12:29:28;;;;;;;6.65;2.33;;;28.20;68.30;;;;;;5026667;28;20048;-64
2021/07/18 12:32:13;;;;;;;2.28;1.55;;;28.20;67.40;;;;;;5030274;28;20052;-64
2021/07/18 12:34:57;;;;;;;;;;;28.30;66.60;;;;;;5025902;28;20568;-64
2021/07/18 12:37:43;;;;;;;1.92;1.20;;;28.20;66.50;;;;;;5028890;28;20050;-64
2021/07/18 12:40:27;;;;;;;2.53;1.50;;;28.20;65.90;;;;;;5023269;28;20055;-64
2021/07/18 12:43:11;;;;;;;3.25;1.55;;;28.20;66.20;;;;;;5026980;28;20043;-64
2021/07/18 12:45:55;;;;;;;4.18;1.63;;;28.20;65.50;;;;;;5023015;28;20035;-64
2021/07/18 12:48:40;;;;;;;3.60;1.92;;;28.20;65.50;;;;;;5027771;28;20103;-64
2021/07/18 12:51:29;;;;;;;3.60;1.40;;;28.20;66.00;;;;;;5030533;28;20048;-64
2021/07/18 12:54:14;;;;;;;3.70;1.80;;;28.30;65.50;;;;;;5029170;28;20033;-64
2021/07/18 12:56:58;;;;;;;2.80;1.75;;;28.30;65.70;;;;;;5031345;28;20032;-65
2021/07/18 12:59:42;;;;;;;2.58;1.60;;;28.40;66.20;;;;;;5021632;28;20045;-64
2021/07/18 13:02:27;;;;;;;2.67;1.55;;;28.50;65.40;;;;;;5025947;28;20032;-64
2021/07/18 13:05:11;;;;;;;3.78;1.65;;;28.70;65.00;;;;;;5022899;28;20040;-64
2021/07/18 13:07:56;;;;;;;3.55;1.70;;;28.70;64.80;;;;;;5025001;28;20053;-65
2021/07/18 13:10:42;;;;;;;4.70;2.03;;;28.60;64.40;;;;;;5028566;28;20047;-64
2021/07/18 13:13:34;;;;;;;3.20;1.48;;;28.50;64.30;;;;;;5026952;28;20189;-64
2021/07/18 13:16:31;;;;;;;3.30;1.88;;;28.50;64.30;;;;;;5019694;28;20037;-64
2021/07/18 13:19:17;;;;;;;4.45;2.15;;;28.40;64.90;;;;;;5020883;28;20060;-64
2021/07/18 13:22:04;;;;;;;3.60;2.08;;;28.40;63.50;;;;;;5023906;28;20036;-64
2021/07/18 13:24:48;;;;;;;7.78;2.22;;;28.30;64.50;;;;;;5034560;28;20723;-65
2021/07/18 13:27:37;;;;;;;3.10;1.92;;;28.30;65.40;;;;;;5017599;28;20398;-65
2021/07/18 13:30:24;;;;;;;4.68;1.65;;;28.30;63.80;;;;;;5029020;28;20074;-65
2021/07/18 13:33:12;;;;;;;2.88;1.92;;;28.20;64.10;;;;;;5031094;28;20036;-65
2021/07/18 13:35:58;;;;;;;3.35;1.92;;;28.30;63.80;;;;;;5028626;28;20043;-65
2021/07/18 13:38:45;;;;;;;3.58;1.90;;;28.40;63.80;;;;;;5028867;28;20079;-65
2021/07/18 13:41:29;;;;;;;4.85;1.80;;;28.50;64.60;;;;;;5028319;28;20040;-65
2021/07/18 13:44:13;;;;;;;4.07;1.60;;;28.50;64.60;;;;;;5024067;28;20056;-65
2021/07/18 13:46:56;;;;;;;3.92;1.77;;;28.60;64.20;;;;;;5009283;28;20409;-66
2021/07/18 13:49:40;;;;;;;3.80;2.35;;;28.70;63.80;;;;;;5019204;28;20475;-65
2021/07/18 13:52:24;;;;;;;2.58;1.55;;;28.70;62.80;;;;;;5028337;28;20584;-65
2021/07/18 13:55:09;;;;;;;5.22;1.80;;;28.70;62.40;;;;;;5024244;28;20045;-65
2021/07/18 13:57:53;;;;;;;3.15;1.85;;;28.70;62.90;;;;;;5024747;28;20517;-65
2021/07/18 14:00:39;;;;;;;3.28;1.50;;;28.70;63.10;;;;;;5028930;28;20095;-65
2021/07/18 14:03:23;;;;;;;4.38;2.00;;;28.80;61.80;;;;;;5027555;28;20539;-65
2021/07/18 14:06:08;;;;;;;4.10;2.22;;;28.80;62.50;;;;;;5019246;28;20052;-66
2021/07/18 14:08:52;;;;;;;2.40;1.70;;;28.90;62.20;;;;;;5024234;28;20126;-66
2021/07/18 14:11:36;;;;;;;4.93;2.55;;;29.00;61.40;;;;;;5033873;28;20055;-66